sensor_id;sensor_type;location;lat;lon;timestamp;P1;durP1;ratioP1;P2;durP2;ratioP2
55758;SDS011;41678;52.126;20.664;2024-03-29T00:07:24;15.75;;;4.18;;
55758;SDS011;41678;52.126;20.664;2024-03-29T00:12:46;11.50;;;4.28;;
55758;SDS011;41678;52.126;20.664;2024-03-29T00:18:19;13.52;;;3.28;;
55758;SDS011;41678;52.126;20.664;2024-03-29T00:23:40;13.40;;;2.97;;
55758;SDS011;41678;52.126;20.664;2024-03-29T00:29:04;7.03;;;2.50;;
55758;SDS011;41678;52.126;20.664;2024-03-29T00:34:24;11.05;;;2.65;;
55758;SDS011;41678;52.126;20.664;2024-03-29T00:39:45;10.88;;;2.35;;
55758;SDS011;41678;52.126;20.664;2024-03-29T00:45:06;6.22;;;1.60;;
55758;SDS011;41678;52.126;20.664;2024-03-29T00:50:33;5.00;;;1.50;;
55758;SDS011;41678;52.126;20.664;2024-03-29T00:55:53;5.40;;;1.33;;
55758;SDS011;41678;52.126;20.664;2024-03-29T01:01:20;5.53;;;1.52;;
55758;SDS011;41678;52.126;20.664;2024-03-29T01:06:41;4.85;;;1.52;;
55758;SDS011;41678;52.126;20.664;2024-03-29T01:12:07;3.83;;;1.30;;
55758;SDS011;41678;52.126;20.664;2024-03-29T01:17:28;4.00;;;1.30;;
55758;SDS011;41678;52.126;20.664;2024-03-29T01:22:52;5.18;;;1.30;;
55758;SDS011;41678;52.126;20.664;2024-03-29T01:28:29;4.65;;;1.40;;
55758;SDS011;41678;52.126;20.664;2024-03-29T01:33:53;4.15;;;1.10;;
55758;SDS011;41678;52.126;20.664;2024-03-29T01:39:18;5.20;;;1.40;;
55758;SDS011;41678;52.126;20.664;2024-03-29T01:44:49;5.13;;;1.55;;
55758;SDS011;41678;52.126;20.664;2024-03-29T01:50:10;3.97;;;1.40;;
55758;SDS011;41678;52.126;20.664;2024-03-29T01:55:40;5.88;;;1.50;;
55758;SDS011;41678;52.126;20.664;2024-03-29T02:01:01;6.67;;;1.90;;
55758;SDS011;41678;52.126;20.664;2024-03-29T02:06:36;8.05;;;1.40;;
55758;SDS011;41678;52.126;20.664;2024-03-29T02:12:00;6.35;;;1.60;;
55758;SDS011;41678;52.126;20.664;2024-03-29T02:17:21;3.97;;;1.40;;
55758;SDS011;41678;52.126;20.664;2024-03-29T02:22:44;8.00;;;1.60;;
55758;SDS011;41678;52.126;20.664;2024-03-29T02:28:10;5.00;;;1.63;;
55758;SDS011;41678;52.126;20.664;2024-03-29T02:38:58;4.20;;;1.45;;
55758;SDS011;41678;52.126;20.664;2024-03-29T02:44:21;4.75;;;1.50;;
55758;SDS011;41678;52.126;20.664;2024-03-29T02:49:43;5.63;;;1.65;;
55758;SDS011;41678;52.126;20.664;2024-03-29T02:55:03;5.03;;;1.58;;
55758;SDS011;41678;52.126;20.664;2024-03-29T03:00:23;5.97;;;1.48;;
55758;SDS011;41678;52.126;20.664;2024-03-29T03:05:51;5.65;;;1.88;;
55758;SDS011;41678;52.126;20.664;2024-03-29T03:11:15;3.20;;;0.95;;
55758;SDS011;41678;52.126;20.664;2024-03-29T03:16:35;5.80;;;1.85;;
55758;SDS011;41678;52.126;20.664;2024-03-29T03:21:55;5.50;;;1.73;;
55758;SDS011;41678;52.126;20.664;2024-03-29T03:27:15;9.05;;;2.33;;
55758;SDS011;41678;52.126;20.664;2024-03-29T03:32:36;7.20;;;1.90;;
55758;SDS011;41678;52.126;20.664;2024-03-29T03:37:59;5.97;;;1.38;;
55758;SDS011;41678;52.126;20.664;2024-03-29T03:43:20;5.07;;;1.77;;
55758;SDS011;41678;52.126;20.664;2024-03-29T03:48:39;7.68;;;1.90;;
55758;SDS011;41678;52.126;20.664;2024-03-29T03:53:59;4.63;;;1.45;;
55758;SDS011;41678;52.126;20.664;2024-03-29T03:59:22;6.00;;;1.42;;
55758;SDS011;41678;52.126;20.664;2024-03-29T04:04:41;7.25;;;1.83;;
55758;SDS011;41678;52.126;20.664;2024-03-29T04:10:02;9.63;;;2.00;;
55758;SDS011;41678;52.126;20.664;2024-03-29T04:21:46;4.32;;;1.40;;
55758;SDS011;41678;52.126;20.664;2024-03-29T04:27:05;3.90;;;1.48;;
55758;SDS011;41678;52.126;20.664;2024-03-29T04:32:25;5.03;;;1.60;;
55758;SDS011;41678;52.126;20.664;2024-03-29T04:37:45;8.43;;;2.47;;
55758;SDS011;41678;52.126;20.664;2024-03-29T04:43:05;5.22;;;1.80;;
55758;SDS011;41678;52.126;20.664;2024-03-29T04:48:26;6.47;;;1.77;;
55758;SDS011;41678;52.126;20.664;2024-03-29T04:53:45;6.07;;;2.00;;
55758;SDS011;41678;52.126;20.664;2024-03-29T04:59:05;4.10;;;1.42;;
55758;SDS011;41678;52.126;20.664;2024-03-29T05:04:27;4.38;;;1.25;;
55758;SDS011;41678;52.126;20.664;2024-03-29T05:09:47;5.40;;;1.27;;
55758;SDS011;41678;52.126;20.664;2024-03-29T05:15:07;6.15;;;1.45;;
55758;SDS011;41678;52.126;20.664;2024-03-29T05:20:27;7.35;;;1.85;;
55758;SDS011;41678;52.126;20.664;2024-03-29T05:25:46;4.70;;;1.48;;
55758;SDS011;41678;52.126;20.664;2024-03-29T05:31:11;6.20;;;1.77;;
55758;SDS011;41678;52.126;20.664;2024-03-29T05:36:33;6.88;;;1.83;;
55758;SDS011;41678;52.126;20.664;2024-03-29T05:41:55;9.05;;;2.30;;
55758;SDS011;41678;52.126;20.664;2024-03-29T05:47:15;6.07;;;1.52;;
55758;SDS011;41678;52.126;20.664;2024-03-29T05:52:35;5.50;;;1.73;;
55758;SDS011;41678;52.126;20.664;2024-03-29T05:57:55;12.48;;;1.90;;
55758;SDS011;41678;52.126;20.664;2024-03-29T06:03:14;4.72;;;1.70;;
55758;SDS011;41678;52.126;20.664;2024-03-29T06:08:35;5.82;;;2.00;;
55758;SDS011;41678;52.126;20.664;2024-03-29T06:13:55;7.00;;;1.55;;
55758;SDS011;41678;52.126;20.664;2024-03-29T06:19:29;6.13;;;1.50;;
55758;SDS011;41678;52.126;20.664;2024-03-29T06:24:48;6.85;;;1.40;;
55758;SDS011;41678;52.126;20.664;2024-03-29T06:30:10;5.80;;;1.35;;
55758;SDS011;41678;52.126;20.664;2024-03-29T06:35:30;9.20;;;1.85;;
55758;SDS011;41678;52.126;20.664;2024-03-29T06:40:56;5.70;;;1.60;;
55758;SDS011;41678;52.126;20.664;2024-03-29T06:46:16;5.43;;;1.88;;
55758;SDS011;41678;52.126;20.664;2024-03-29T06:51:41;8.57;;;2.10;;
55758;SDS011;41678;52.126;20.664;2024-03-29T06:57:02;4.13;;;1.25;;
55758;SDS011;41678;52.126;20.664;2024-03-29T07:02:22;6.28;;;1.83;;
55758;SDS011;41678;52.126;20.664;2024-03-29T07:07:42;5.05;;;1.30;;
55758;SDS011;41678;52.126;20.664;2024-03-29T07:13:13;7.00;;;1.60;;
55758;SDS011;41678;52.126;20.664;2024-03-29T07:18:35;4.72;;;1.10;;
55758;SDS011;41678;52.126;20.664;2024-03-29T07:23:58;7.88;;;1.73;;
55758;SDS011;41678;52.126;20.664;2024-03-29T07:29:19;7.10;;;1.33;;
55758;SDS011;41678;52.126;20.664;2024-03-29T07:34:47;4.68;;;1.40;;
55758;SDS011;41678;52.126;20.664;2024-03-29T07:40:08;4.40;;;1.20;;
55758;SDS011;41678;52.126;20.664;2024-03-29T07:45:31;3.83;;;1.05;;
55758;SDS011;41678;52.126;20.664;2024-03-29T07:50:52;3.40;;;0.90;;
55758;SDS011;41678;52.126;20.664;2024-03-29T07:56:14;7.50;;;1.10;;
55758;SDS011;41678;52.126;20.664;2024-03-29T08:01:35;3.83;;;1.50;;
55758;SDS011;41678;52.126;20.664;2024-03-29T08:06:55;5.75;;;1.55;;
55758;SDS011;41678;52.126;20.664;2024-03-29T08:12:17;3.85;;;1.20;;
55758;SDS011;41678;52.126;20.664;2024-03-29T08:17:37;3.60;;;1.50;;
55758;SDS011;41678;52.126;20.664;2024-03-29T08:22:59;3.70;;;1.10;;
55758;SDS011;41678;52.126;20.664;2024-03-29T08:28:54;5.97;;;1.95;;
55758;SDS011;41678;52.126;20.664;2024-03-29T08:34:16;6.90;;;1.52;;
55758;SDS011;41678;52.126;20.664;2024-03-29T08:39:36;6.20;;;1.50;;
55758;SDS011;41678;52.126;20.664;2024-03-29T08:45:02;3.78;;;1.25;;
55758;SDS011;41678;52.126;20.664;2024-03-29T08:50:26;5.80;;;1.75;;
55758;SDS011;41678;52.126;20.664;2024-03-29T08:55:47;6.70;;;1.43;;
55758;SDS011;41678;52.126;20.664;2024-03-29T09:01:18;5.82;;;1.60;;
55758;SDS011;41678;52.126;20.664;2024-03-29T09:06:41;5.40;;;1.55;;
55758;SDS011;41678;52.126;20.664;2024-03-29T09:12:02;9.20;;;1.40;;
55758;SDS011;41678;52.126;20.664;2024-03-29T09:17:26;5.60;;;1.75;;
55758;SDS011;41678;52.126;20.664;2024-03-29T09:22:50;4.20;;;1.42;;
55758;SDS011;41678;52.126;20.664;2024-03-29T09:28:12;5.38;;;1.90;;
55758;SDS011;41678;52.126;20.664;2024-03-29T09:33:33;5.40;;;1.60;;
55758;SDS011;41678;52.126;20.664;2024-03-29T09:38:53;3.03;;;1.10;;
55758;SDS011;41678;52.126;20.664;2024-03-29T09:44:14;12.60;;;1.60;;
55758;SDS011;41678;52.126;20.664;2024-03-29T09:49:40;3.95;;;1.42;;
55758;SDS011;41678;52.126;20.664;2024-03-29T09:55:08;4.05;;;1.33;;
55758;SDS011;41678;52.126;20.664;2024-03-29T10:00:33;6.53;;;1.52;;
55758;SDS011;41678;52.126;20.664;2024-03-29T10:06:04;4.40;;;1.20;;
55758;SDS011;41678;52.126;20.664;2024-03-29T10:11:32;4.63;;;1.50;;
55758;SDS011;41678;52.126;20.664;2024-03-29T10:17:00;4.60;;;1.27;;
55758;SDS011;41678;52.126;20.664;2024-03-29T10:22:24;3.83;;;1.00;;
55758;SDS011;41678;52.126;20.664;2024-03-29T10:27:45;5.90;;;1.42;;
55758;SDS011;41678;52.126;20.664;2024-03-29T10:33:06;3.87;;;1.20;;
55758;SDS011;41678;52.126;20.664;2024-03-29T10:38:32;4.03;;;1.02;;
55758;SDS011;41678;52.126;20.664;2024-03-29T10:44:25;5.88;;;1.38;;
55758;SDS011;41678;52.126;20.664;2024-03-29T10:49:50;9.65;;;2.22;;
55758;SDS011;41678;52.126;20.664;2024-03-29T10:55:14;9.63;;;2.45;;
55758;SDS011;41678;52.126;20.664;2024-03-29T11:00:38;5.03;;;1.10;;
55758;SDS011;41678;52.126;20.664;2024-03-29T11:06:10;4.82;;;1.38;;
55758;SDS011;41678;52.126;20.664;2024-03-29T11:11:43;5.97;;;0.95;;
55758;SDS011;41678;52.126;20.664;2024-03-29T11:17:05;5.85;;;1.05;;
55758;SDS011;41678;52.126;20.664;2024-03-29T11:22:27;7.70;;;1.17;;
55758;SDS011;41678;52.126;20.664;2024-03-29T11:28:03;5.32;;;1.10;;
55758;SDS011;41678;52.126;20.664;2024-03-29T11:39:25;7.28;;;1.00;;
55758;SDS011;41678;52.126;20.664;2024-03-29T11:44:46;3.13;;;0.88;;
55758;SDS011;41678;52.126;20.664;2024-03-29T11:50:06;3.30;;;0.98;;
55758;SDS011;41678;52.126;20.664;2024-03-29T11:55:28;6.53;;;1.33;;
55758;SDS011;41678;52.126;20.664;2024-03-29T12:00:49;4.90;;;1.10;;
55758;SDS011;41678;52.126;20.664;2024-03-29T12:06:17;4.75;;;1.20;;
55758;SDS011;41678;52.126;20.664;2024-03-29T12:11:44;5.90;;;1.65;;
55758;SDS011;41678;52.126;20.664;2024-03-29T12:17:15;5.25;;;1.05;;
55758;SDS011;41678;52.126;20.664;2024-03-29T12:22:35;5.28;;;1.05;;
55758;SDS011;41678;52.126;20.664;2024-03-29T12:27:58;6.47;;;1.20;;
55758;SDS011;41678;52.126;20.664;2024-03-29T12:38:41;6.50;;;1.00;;
55758;SDS011;41678;52.126;20.664;2024-03-29T12:44:01;3.22;;;0.88;;
55758;SDS011;41678;52.126;20.664;2024-03-29T12:49:33;4.85;;;0.80;;
55758;SDS011;41678;52.126;20.664;2024-03-29T12:55:06;4.68;;;0.68;;
55758;SDS011;41678;52.126;20.664;2024-03-29T13:00:32;5.20;;;1.33;;
55758;SDS011;41678;52.126;20.664;2024-03-29T13:05:59;2.15;;;0.60;;
55758;SDS011;41678;52.126;20.664;2024-03-29T13:11:23;3.95;;;0.90;;
55758;SDS011;41678;52.126;20.664;2024-03-29T13:27:28;4.35;;;0.85;;
55758;SDS011;41678;52.126;20.664;2024-03-29T13:38:40;5.87;;;1.10;;
55758;SDS011;41678;52.126;20.664;2024-03-29T13:44:02;4.53;;;0.95;;
55758;SDS011;41678;52.126;20.664;2024-03-29T13:49:29;6.60;;;1.10;;
55758;SDS011;41678;52.126;20.664;2024-03-29T13:54:50;4.47;;;0.95;;
55758;SDS011;41678;52.126;20.664;2024-03-29T14:00:11;2.67;;;0.90;;
55758;SDS011;41678;52.126;20.664;2024-03-29T14:05:34;2.30;;;0.75;;
55758;SDS011;41678;52.126;20.664;2024-03-29T14:10:54;7.15;;;1.50;;
55758;SDS011;41678;52.126;20.664;2024-03-29T14:16:13;7.90;;;1.08;;
55758;SDS011;41678;52.126;20.664;2024-03-29T14:21:37;4.10;;;1.13;;
55758;SDS011;41678;52.126;20.664;2024-03-29T14:26:56;3.65;;;0.90;;
55758;SDS011;41678;52.126;20.664;2024-03-29T14:32:22;5.78;;;1.67;;
55758;SDS011;41678;52.126;20.664;2024-03-29T14:38:05;3.75;;;1.20;;
55758;SDS011;41678;52.126;20.664;2024-03-29T14:43:24;8.27;;;1.17;;
55758;SDS011;41678;52.126;20.664;2024-03-29T14:48:44;3.92;;;1.00;;
55758;SDS011;41678;52.126;20.664;2024-03-29T14:54:04;7.13;;;1.95;;
55758;SDS011;41678;52.126;20.664;2024-03-29T14:59:24;4.15;;;0.90;;
55758;SDS011;41678;52.126;20.664;2024-03-29T15:04:45;3.85;;;1.08;;
55758;SDS011;41678;52.126;20.664;2024-03-29T15:10:06;5.45;;;0.98;;
55758;SDS011;41678;52.126;20.664;2024-03-29T15:15:29;3.63;;;1.10;;
55758;SDS011;41678;52.126;20.664;2024-03-29T15:20:53;6.03;;;1.33;;
55758;SDS011;41678;52.126;20.664;2024-03-29T15:26:16;4.65;;;1.52;;
55758;SDS011;41678;52.126;20.664;2024-03-29T15:31:39;6.95;;;1.35;;
55758;SDS011;41678;52.126;20.664;2024-03-29T15:37:00;6.22;;;1.80;;
55758;SDS011;41678;52.126;20.664;2024-03-29T15:42:19;6.45;;;1.42;;
55758;SDS011;41678;52.126;20.664;2024-03-29T15:47:39;5.75;;;1.38;;
55758;SDS011;41678;52.126;20.664;2024-03-29T15:52:59;9.57;;;1.13;;
55758;SDS011;41678;52.126;20.664;2024-03-29T15:58:19;6.53;;;1.30;;
55758;SDS011;41678;52.126;20.664;2024-03-29T16:03:39;6.10;;;1.42;;
55758;SDS011;41678;52.126;20.664;2024-03-29T16:09:00;6.07;;;1.53;;
55758;SDS011;41678;52.126;20.664;2024-03-29T16:14:21;15.05;;;1.88;;
55758;SDS011;41678;52.126;20.664;2024-03-29T16:19:43;11.68;;;1.60;;
55758;SDS011;41678;52.126;20.664;2024-03-29T16:25:06;7.45;;;1.55;;
55758;SDS011;41678;52.126;20.664;2024-03-29T16:30:26;10.52;;;1.48;;
55758;SDS011;41678;52.126;20.664;2024-03-29T16:35:47;7.68;;;1.35;;
55758;SDS011;41678;52.126;20.664;2024-03-29T16:41:07;6.63;;;1.70;;
55758;SDS011;41678;52.126;20.664;2024-03-29T16:46:27;6.28;;;1.98;;
55758;SDS011;41678;52.126;20.664;2024-03-29T16:51:47;6.97;;;1.90;;
55758;SDS011;41678;52.126;20.664;2024-03-29T16:57:07;9.52;;;2.13;;
55758;SDS011;41678;52.126;20.664;2024-03-29T17:02:26;5.85;;;1.65;;
55758;SDS011;41678;52.126;20.664;2024-03-29T17:07:46;9.30;;;2.72;;
55758;SDS011;41678;52.126;20.664;2024-03-29T17:13:06;11.02;;;2.10;;
55758;SDS011;41678;52.126;20.664;2024-03-29T17:18:26;11.55;;;2.20;;
55758;SDS011;41678;52.126;20.664;2024-03-29T17:23:46;10.77;;;3.30;;
55758;SDS011;41678;52.126;20.664;2024-03-29T17:29:05;13.00;;;3.75;;
55758;SDS011;41678;52.126;20.664;2024-03-29T17:34:25;10.70;;;3.60;;
55758;SDS011;41678;52.126;20.664;2024-03-29T17:39:46;10.88;;;4.00;;
55758;SDS011;41678;52.126;20.664;2024-03-29T17:45:06;19.38;;;4.80;;
55758;SDS011;41678;52.126;20.664;2024-03-29T17:50:27;15.57;;;5.57;;
55758;SDS011;41678;52.126;20.664;2024-03-29T17:55:47;11.73;;;3.90;;
55758;SDS011;41678;52.126;20.664;2024-03-29T18:01:07;13.57;;;5.03;;
55758;SDS011;41678;52.126;20.664;2024-03-29T18:06:27;19.93;;;5.10;;
55758;SDS011;41678;52.126;20.664;2024-03-29T18:11:47;17.23;;;5.22;;
55758;SDS011;41678;52.126;20.664;2024-03-29T18:17:07;16.42;;;5.30;;
55758;SDS011;41678;52.126;20.664;2024-03-29T18:22:27;16.73;;;6.15;;
55758;SDS011;41678;52.126;20.664;2024-03-29T18:27:47;25.45;;;7.22;;
55758;SDS011;41678;52.126;20.664;2024-03-29T18:33:07;21.23;;;6.25;;
55758;SDS011;41678;52.126;20.664;2024-03-29T18:38:26;23.42;;;6.95;;
55758;SDS011;41678;52.126;20.664;2024-03-29T18:43:53;22.85;;;6.90;;
55758;SDS011;41678;52.126;20.664;2024-03-29T18:49:13;17.42;;;6.50;;
55758;SDS011;41678;52.126;20.664;2024-03-29T18:54:33;19.10;;;7.60;;
55758;SDS011;41678;52.126;20.664;2024-03-29T18:59:53;16.00;;;6.38;;
55758;SDS011;41678;52.126;20.664;2024-03-29T19:05:13;14.48;;;5.65;;
55758;SDS011;41678;52.126;20.664;2024-03-29T19:10:33;15.38;;;5.43;;
55758;SDS011;41678;52.126;20.664;2024-03-29T19:15:53;16.80;;;5.45;;
55758;SDS011;41678;52.126;20.664;2024-03-29T19:21:13;16.92;;;6.03;;
55758;SDS011;41678;52.126;20.664;2024-03-29T19:26:33;16.52;;;6.47;;
55758;SDS011;41678;52.126;20.664;2024-03-29T19:31:52;14.48;;;5.82;;
55758;SDS011;41678;52.126;20.664;2024-03-29T19:37:12;21.80;;;6.28;;
55758;SDS011;41678;52.126;20.664;2024-03-29T19:42:32;18.83;;;7.63;;
55758;SDS011;41678;52.126;20.664;2024-03-29T19:47:52;22.30;;;7.93;;
55758;SDS011;41678;52.126;20.664;2024-03-29T19:53:15;29.60;;;9.32;;
55758;SDS011;41678;52.126;20.664;2024-03-29T19:58:34;25.27;;;8.15;;
55758;SDS011;41678;52.126;20.664;2024-03-29T20:03:54;21.00;;;9.07;;
55758;SDS011;41678;52.126;20.664;2024-03-29T20:09:14;21.73;;;7.53;;
55758;SDS011;41678;52.126;20.664;2024-03-29T20:14:34;21.40;;;7.72;;
55758;SDS011;41678;52.126;20.664;2024-03-29T20:19:53;22.80;;;7.60;;
55758;SDS011;41678;52.126;20.664;2024-03-29T20:25:13;19.83;;;6.20;;
55758;SDS011;41678;52.126;20.664;2024-03-29T20:30:33;16.40;;;6.15;;
55758;SDS011;41678;52.126;20.664;2024-03-29T20:35:52;17.58;;;6.43;;
55758;SDS011;41678;52.126;20.664;2024-03-29T20:41:12;17.73;;;6.07;;
55758;SDS011;41678;52.126;20.664;2024-03-29T20:46:34;26.23;;;5.20;;
55758;SDS011;41678;52.126;20.664;2024-03-29T20:51:54;12.52;;;4.65;;
55758;SDS011;41678;52.126;20.664;2024-03-29T20:57:14;16.63;;;4.63;;
55758;SDS011;41678;52.126;20.664;2024-03-29T21:02:34;15.32;;;4.97;;
55758;SDS011;41678;52.126;20.664;2024-03-29T21:08:12;17.00;;;4.88;;
55758;SDS011;41678;52.126;20.664;2024-03-29T21:13:32;13.57;;;5.00;;
55758;SDS011;41678;52.126;20.664;2024-03-29T21:18:52;14.57;;;4.70;;
55758;SDS011;41678;52.126;20.664;2024-03-29T21:24:12;15.23;;;4.50;;
55758;SDS011;41678;52.126;20.664;2024-03-29T21:29:31;12.27;;;4.75;;
55758;SDS011;41678;52.126;20.664;2024-03-29T21:34:51;12.88;;;4.32;;
55758;SDS011;41678;52.126;20.664;2024-03-29T21:40:11;11.15;;;4.30;;
55758;SDS011;41678;52.126;20.664;2024-03-29T21:45:31;14.15;;;4.63;;
55758;SDS011;41678;52.126;20.664;2024-03-29T21:50:51;15.40;;;4.57;;
55758;SDS011;41678;52.126;20.664;2024-03-29T21:56:12;13.88;;;4.80;;
55758;SDS011;41678;52.126;20.664;2024-03-29T22:01:31;11.25;;;3.78;;
55758;SDS011;41678;52.126;20.664;2024-03-29T22:06:52;20.48;;;5.47;;
55758;SDS011;41678;52.126;20.664;2024-03-29T22:12:11;13.75;;;4.10;;
55758;SDS011;41678;52.126;20.664;2024-03-29T22:17:31;14.95;;;5.63;;
55758;SDS011;41678;52.126;20.664;2024-03-29T22:22:53;15.05;;;5.22;;
55758;SDS011;41678;52.126;20.664;2024-03-29T22:28:13;18.10;;;5.20;;
55758;SDS011;41678;52.126;20.664;2024-03-29T22:33:36;12.55;;;4.80;;
55758;SDS011;41678;52.126;20.664;2024-03-29T22:38:55;17.02;;;5.40;;
55758;SDS011;41678;52.126;20.664;2024-03-29T22:44:15;13.20;;;4.95;;
55758;SDS011;41678;52.126;20.664;2024-03-29T22:49:35;17.17;;;4.85;;
55758;SDS011;41678;52.126;20.664;2024-03-29T22:54:55;15.45;;;4.95;;
55758;SDS011;41678;52.126;20.664;2024-03-29T23:00:15;14.27;;;4.55;;
55758;SDS011;41678;52.126;20.664;2024-03-29T23:05:35;12.85;;;4.63;;
55758;SDS011;41678;52.126;20.664;2024-03-29T23:10:55;13.48;;;5.28;;
55758;SDS011;41678;52.126;20.664;2024-03-29T23:16:15;20.60;;;5.15;;
55758;SDS011;41678;52.126;20.664;2024-03-29T23:21:36;16.15;;;5.38;;
55758;SDS011;41678;52.126;20.664;2024-03-29T23:26:56;18.25;;;5.60;;
55758;SDS011;41678;52.126;20.664;2024-03-29T23:32:16;18.85;;;5.82;;
55758;SDS011;41678;52.126;20.664;2024-03-29T23:37:36;20.60;;;5.15;;
55758;SDS011;41678;52.126;20.664;2024-03-29T23:42:56;19.25;;;5.07;;
55758;SDS011;41678;52.126;20.664;2024-03-29T23:48:16;18.70;;;4.88;;
55758;SDS011;41678;52.126;20.664;2024-03-29T23:53:36;14.52;;;5.30;;
55758;SDS011;41678;52.126;20.664;2024-03-29T23:58:56;19.65;;;4.72;;
